Time;durP1;ratioP1;P1;durP2;ratioP2;P2;SDS_P1;SDS_P2;PMS_P1;PMS_P2;Temp;Humidity;BMP_temperature;BMP_pressure;BME280_temperature;BME280_humidity;BME280_pressure;Samples;Min_cycle;Max_cycle;Signal;HPM_P1;HPM_P2
2024/02/05 00:01:47;;;;;;;15.52;7.53;;;;;;;;;;5073755;28;20052;-60
2024/02/05 00:04:14;;;;;;;13.90;7.20;;;;;;;;;;5073708;28;20056;-61
2024/02/05 00:06:41;;;;;;;14.55;8.10;;;;;;;;;;5073840;28;20059;-61
2024/02/05 00:09:08;;;;;;;14.23;8.05;;;;;;;;;;5073461;28;20045;-61
2024/02/05 00:11:35;;;;;;;12.50;8.88;;;;;;;;;;5073366;28;20052;-61
2024/02/05 00:14:02;;;;;;;14.18;8.02;;;;;;;;;;5073768;28;20052;-61
2024/02/05 00:16:30;;;;;;;17.70;8.43;;;;;;;;;;5072913;28;20078;-60
2024/02/05 00:18:57;;;;;;;14.55;7.97;;;;;;;;;;5073637;28;20403;-61
2024/02/05 00:21:24;;;;;;;13.35;7.70;;;;;;;;;;5073455;28;20053;-61
2024/02/05 00:23:50;;;;;;;13.73;7.50;;;;;;;;;;5073219;28;20053;-61
2024/02/05 00:26:17;;;;;;;13.38;7.07;;;;;;;;;;5073328;28;20510;-61
2024/02/05 00:28:44;;;;;;;12.18;7.13;;;;;;;;;;5073173;28;20044;-60
2024/02/05 00:31:11;;;;;;;11.90;7.40;;;;;;;;;;5073366;28;20483;-61
2024/02/05 00:33:39;;;;;;;13.27;7.00;;;;;;;;;;5073355;28;20059;-61
2024/02/05 00:36:07;;;;;;;11.23;6.78;;;;;;;;;;5073183;28;20056;-60
2024/02/05 00:38:34;;;;;;;11.15;6.75;;;;;;;;;;5073490;28;20484;-61
2024/02/05 00:41:00;;;;;;;10.13;5.65;;;;;;;;;;5073000;28;20052;-62
2024/02/05 00:43:27;;;;;;;11.60;7.13;;;;;;;;;;5073371;28;20052;-61
2024/02/05 00:45:54;;;;;;;10.40;6.13;;;;;;;;;;5073211;28;20052;-61
2024/02/05 00:48:21;;;;;;;12.48;7.00;;;;;;;;;;5073171;28;20055;-60
2024/02/05 00:50:49;;;;;;;10.30;5.82;;;;;;;;;;5073029;28;20059;-63
2024/02/05 00:53:16;;;;;;;9.80;5.63;;;;;;;;;;5073132;28;20059;-60
2024/02/05 00:55:42;;;;;;;12.65;6.55;;;;;;;;;;5073005;28;20063;-60
2024/02/05 00:58:09;;;;;;;11.77;5.88;;;;;;;;;;5072989;28;20499;-60
2024/02/05 01:00:36;;;;;;;12.65;6.00;;;;;;;;;;5072907;28;20487;-62
2024/02/05 01:03:03;;;;;;;10.02;6.15;;;;;;;;;;5073019;28;20479;-61
2024/02/05 01:05:30;;;;;;;15.05;6.90;;;;;;;;;;5072911;28;20059;-61
2024/02/05 01:07:58;;;;;;;9.52;6.35;;;;;;;;;;5072821;28;20508;-61
2024/02/05 01:10:25;;;;;;;11.98;7.45;;;;;;;;;;5072773;28;20044;-61
2024/02/05 01:12:52;;;;;;;11.93;7.55;;;;;;;;;;5072742;28;20056;-61
2024/02/05 01:15:19;;;;;;;18.30;8.98;;;;;;;;;;5072546;28;20056;-61
2024/02/05 01:17:45;;;;;;;17.55;9.98;;;;;;;;;;5072828;28;20052;-61
2024/02/05 01:20:12;;;;;;;16.40;9.93;;;;;;;;;;5072723;28;20044;-61
2024/02/05 01:22:39;;;;;;;18.08;10.25;;;;;;;;;;5072589;28;20057;-61
2024/02/05 01:25:08;;;;;;;17.23;8.88;;;;;;;;;;5072782;28;20048;-62
2024/02/05 01:27:34;;;;;;;16.00;8.60;;;;;;;;;;5072047;28;20048;-61
2024/02/05 01:30:01;;;;;;;13.15;9.23;;;;;;;;;;5072528;28;20055;-61
2024/02/05 01:32:28;;;;;;;18.95;10.02;;;;;;;;;;5072200;28;20049;-61
2024/02/05 01:34:55;;;;;;;16.10;9.43;;;;;;;;;;5072790;28;20053;-61
2024/02/05 01:37:23;;;;;;;14.68;8.73;;;;;;;;;;5070263;28;20053;-61
2024/02/05 01:39:50;;;;;;;18.55;9.48;;;;;;;;;;5072124;28;20395;-61
2024/02/05 01:42:18;;;;;;;19.02;9.55;;;;;;;;;;5072127;28;20384;-61
2024/02/05 01:44:45;;;;;;;19.52;9.13;;;;;;;;;;5072534;28;20402;-61
2024/02/05 01:47:12;;;;;;;15.60;8.85;;;;;;;;;;5072320;28;20056;-61
2024/02/05 01:49:38;;;;;;;19.13;9.43;;;;;;;;;;5072079;28;20483;-61
2024/02/05 01:52:09;;;;;;;22.33;10.13;;;;;;;;;;5072328;28;20055;-62
2024/02/05 01:54:36;;;;;;;18.13;9.00;;;;;;;;;;5072580;28;20055;-61
2024/02/05 01:57:04;;;;;;;19.55;8.55;;;;;;;;;;5072134;28;20048;-61
2024/02/05 01:59:33;;;;;;;18.23;8.18;;;;;;;;;;5072238;28;20052;-61
2024/02/05 02:01:59;;;;;;;18.35;8.55;;;;;;;;;;5072286;28;20052;-61
2024/02/05 02:04:27;;;;;;;19.00;8.77;;;;;;;;;;5072209;28;20407;-61
2024/02/05 02:06:54;;;;;;;18.77;9.20;;;;;;;;;;5071895;28;20057;-61
2024/02/05 02:09:20;;;;;;;18.67;8.88;;;;;;;;;;5071890;28;20049;-61
2024/02/05 02:11:47;;;;;;;18.25;8.93;;;;;;;;;;5071943;28;20052;-61
2024/02/05 02:14:14;;;;;;;17.90;8.57;;;;;;;;;;5072444;28;20059;-61
2024/02/05 02:16:42;;;;;;;19.02;9.13;;;;;;;;;;5071778;28;20075;-61
2024/02/05 02:19:16;;;;;;;20.90;9.30;;;;;;;;;;5072591;28;20060;-61
2024/02/05 02:21:44;;;;;;;22.42;9.73;;;;;;;;;;5072243;28;20052;-61
2024/02/05 02:24:12;;;;;;;19.52;8.98;;;;;;;;;;5071790;28;20048;-61
2024/02/05 02:26:39;;;;;;;18.67;9.23;;;;;;;;;;5072140;28;20298;-61
2024/02/05 02:29:06;;;;;;;20.13;8.63;;;;;;;;;;5071702;28;20053;-61
2024/02/05 02:31:33;;;;;;;18.52;8.48;;;;;;;;;;5071872;28;20055;-61
2024/02/05 02:34:07;;;;;;;25.73;10.13;;;;;;;;;;5071963;28;20052;-61
2024/02/05 02:36:36;;;;;;;19.95;9.45;;;;;;;;;;5072257;28;20055;-61
2024/02/05 02:39:05;;;;;;;20.93;8.73;;;;;;;;;;5074343;28;20057;-61
2024/02/05 02:41:36;;;;;;;19.23;8.73;;;;;;;;;;5075171;28;20462;-61
2024/02/05 02:44:03;;;;;;;23.10;9.65;;;;;;;;;;5075691;28;20384;-61
2024/02/05 02:46:30;;;;;;;17.67;8.95;;;;;;;;;;5075487;28;20056;-61
2024/02/05 02:48:56;;;;;;;19.55;8.77;;;;;;;;;;5075748;28;20063;-61
2024/02/05 02:51:23;;;;;;;19.98;8.60;;;;;;;;;;5075210;28;20053;-60
2024/02/05 02:53:50;;;;;;;20.98;9.68;;;;;;;;;;5075635;28;20488;-61
2024/02/05 02:56:17;;;;;;;20.45;10.25;;;;;;;;;;5075305;28;20053;-61
2024/02/05 02:58:45;;;;;;;23.13;10.02;;;;;;;;;;5075388;28;20056;-61
2024/02/05 03:01:12;;;;;;;22.50;10.23;;;;;;;;;;5075432;28;20408;-61
2024/02/05 03:03:39;;;;;;;20.73;9.65;;;;;;;;;;5075688;28;20052;-61
2024/02/05 03:06:06;;;;;;;24.10;10.27;;;;;;;;;;5075094;28;20075;-60
2024/02/05 03:08:33;;;;;;;22.23;9.77;;;;;;;;;;5074868;28;20063;-61
2024/02/05 03:11:00;;;;;;;26.75;10.98;;;;;;;;;;5074590;28;20071;-60
2024/02/05 03:13:27;;;;;;;20.45;10.05;;;;;;;;;;5075405;28;20056;-61
2024/02/05 03:15:55;;;;;;;24.30;9.95;;;;;;;;;;5074786;28;20065;-60
2024/02/05 03:18:23;;;;;;;24.20;10.83;;;;;;;;;;5075180;28;20057;-61
2024/02/05 03:20:49;;;;;;;22.88;10.63;;;;;;;;;;5075186;28;20409;-61
2024/02/05 03:23:16;;;;;;;23.25;10.65;;;;;;;;;;5075241;28;20053;-61
2024/02/05 03:25:43;;;;;;;21.55;10.68;;;;;;;;;;5074949;28;20056;-61
2024/02/05 03:28:10;;;;;;;23.33;10.88;;;;;;;;;;5075147;28;20463;-61
2024/02/05 03:30:37;;;;;;;21.63;10.30;;;;;;;;;;5074643;28;20048;-60
2024/02/05 03:33:05;;;;;;;18.83;10.35;;;;;;;;;;5075224;28;20079;-60
2024/02/05 03:35:32;;;;;;;20.30;10.20;;;;;;;;;;5074780;28;20060;-61
2024/02/05 03:37:59;;;;;;;20.88;9.85;;;;;;;;;;5074876;28;20063;-61
2024/02/05 03:40:26;;;;;;;25.80;11.20;;;;;;;;;;5074556;28;20052;-61
2024/02/05 03:42:53;;;;;;;24.17;11.40;;;;;;;;;;5074872;28;20053;-61
2024/02/05 03:45:21;;;;;;;24.25;11.00;;;;;;;;;;5074272;28;20052;-61
2024/02/05 03:47:48;;;;;;;25.08;12.23;;;;;;;;;;5074668;28;20052;-61
2024/02/05 03:50:17;;;;;;;23.02;11.80;;;;;;;;;;5074055;28;20048;-60
2024/02/05 03:52:44;;;;;;;19.97;12.17;;;;;;;;;;5074587;28;20399;-60
2024/02/05 03:55:11;;;;;;;21.45;11.55;;;;;;;;;;5074541;28;20482;-61
2024/02/05 03:57:42;;;;;;;25.75;11.10;;;;;;;;;;5074572;28;20056;-61
2024/02/05 04:00:10;;;;;;;28.15;12.27;;;;;;;;;;5074084;28;20056;-61
2024/02/05 04:02:38;;;;;;;24.17;10.40;;;;;;;;;;5074410;28;20068;-60
2024/02/05 04:05:05;;;;;;;26.88;11.32;;;;;;;;;;5073861;28;20048;-61
2024/02/05 04:07:33;;;;;;;23.35;11.50;;;;;;;;;;5073854;28;20055;-61
2024/02/05 04:10:00;;;;;;;27.33;11.52;;;;;;;;;;5074104;28;20048;-60
2024/02/05 04:12:27;;;;;;;22.65;11.07;;;;;;;;;;5073722;28;20079;-60
2024/02/05 04:14:54;;;;;;;20.13;11.18;;;;;;;;;;5074215;28;20063;-60
2024/02/05 04:17:20;;;;;;;29.40;11.27;;;;;;;;;;5073437;28;20071;-61
2024/02/05 04:19:47;;;;;;;23.25;10.05;;;;;;;;;;5073994;28;20078;-61
2024/02/05 04:22:14;;;;;;;24.20;12.43;;;;;;;;;;5073835;28;20048;-61
2024/02/05 04:24:42;;;;;;;21.67;11.05;;;;;;;;;;5073789;28;20052;-61
2024/02/05 04:27:09;;;;;;;28.92;11.20;;;;;;;;;;5073683;28;20048;-60
2024/02/05 04:29:36;;;;;;;24.83;11.00;;;;;;;;;;5073396;28;20056;-61
2024/02/05 04:32:03;;;;;;;23.55;10.82;;;;;;;;;;5073572;28;20052;-61
2024/02/05 04:34:29;;;;;;;27.48;10.95;;;;;;;;;;5073589;28;20048;-61
2024/02/05 04:36:56;;;;;;;21.40;11.13;;;;;;;;;;5073170;28;20063;-60
2024/02/05 04:39:23;;;;;;;24.30;9.38;;;;;;;;;;5073151;28;20056;-61
2024/02/05 04:41:51;;;;;;;24.48;9.27;;;;;;;;;;5073204;28;20498;-60
2024/02/05 04:44:18;;;;;;;24.05;8.55;;;;;;;;;;5072871;28;20075;-61
2024/02/05 04:46:45;;;;;;;21.88;9.02;;;;;;;;;;5073081;28;20421;-60
2024/02/05 04:49:12;;;;;;;18.85;7.90;;;;;;;;;;5073025;28;20052;-61
2024/02/05 04:51:39;;;;;;;23.02;9.75;;;;;;;;;;5072951;28;20049;-61
2024/02/05 04:54:06;;;;;;;23.23;8.23;;;;;;;;;;5073137;28;20059;-60
2024/02/05 04:56:33;;;;;;;28.65;9.55;;;;;;;;;;5072997;28;20048;-60
2024/02/05 04:59:01;;;;;;;24.70;8.60;;;;;;;;;;5072943;28;20410;-61
2024/02/05 05:01:27;;;;;;;21.83;9.35;;;;;;;;;;5071568;28;20044;-60
2024/02/05 05:03:54;;;;;;;23.67;9.40;;;;;;;;;;5072610;28;20052;-60
2024/02/05 05:06:21;;;;;;;27.40;9.10;;;;;;;;;;5072692;28;20048;-61
2024/02/05 05:08:48;;;;;;;19.85;9.35;;;;;;;;;;5073019;28;20491;-61
2024/02/05 05:11:20;;;;;;;23.27;8.40;;;;;;;;;;5072458;28;20063;-61
2024/02/05 05:13:48;;;;;;;27.70;8.90;;;;;;;;;;5072851;28;20053;-61
2024/02/05 05:16:17;;;;;;;20.48;7.55;;;;;;;;;;5072482;28;20056;-61
2024/02/05 05:18:44;;;;;;;16.90;7.65;;;;;;;;;;5072768;28;20052;-61
2024/02/05 05:21:10;;;;;;;25.15;7.68;;;;;;;;;;5072741;28;20052;-61
2024/02/05 05:23:37;;;;;;;21.40;7.70;;;;;;;;;;5072911;28;20479;-61
2024/02/05 05:26:05;;;;;;;22.10;8.57;;;;;;;;;;5072364;28;20049;-61
2024/02/05 05:28:32;;;;;;;20.20;8.10;;;;;;;;;;5072330;28;20063;-61
2024/02/05 05:30:59;;;;;;;18.85;8.05;;;;;;;;;;5072231;28;20049;-61
2024/02/05 05:33:27;;;;;;;17.80;7.78;;;;;;;;;;5072707;28;20059;-60
2024/02/05 05:35:54;;;;;;;21.23;8.50;;;;;;;;;;5072680;28;20052;-61
2024/02/05 05:38:21;;;;;;;16.27;7.30;;;;;;;;;;5072374;28;20048;-61
2024/02/05 05:40:48;;;;;;;18.52;7.35;;;;;;;;;;5072027;28;20052;-61
2024/02/05 05:43:14;;;;;;;20.00;7.70;;;;;;;;;;5072481;28;20048;-61
2024/02/05 05:45:41;;;;;;;18.73;7.95;;;;;;;;;;5071954;28;20060;-60
2024/02/05 05:48:08;;;;;;;25.20;7.75;;;;;;;;;;5072373;28;20055;-61
2024/02/05 05:50:36;;;;;;;21.38;7.32;;;;;;;;;;5072303;28;20388;-61
2024/02/05 05:53:03;;;;;;;21.95;8.35;;;;;;;;;;5072465;28;20052;-61
2024/02/05 05:55:31;;;;;;;24.67;7.32;;;;;;;;;;5072386;28;20506;-61
2024/02/05 05:57:58;;;;;;;22.23;7.15;;;;;;;;;;5072301;28;20067;-59
2024/02/05 06:00:25;;;;;;;25.55;7.82;;;;;;;;;;5072447;28;20052;-60
2024/02/05 06:02:52;;;;;;;20.20;7.70;;;;;;;;;;5072334;28;20044;-60
2024/02/05 06:05:19;;;;;;;23.63;7.63;;;;;;;;;;5072410;28;20056;-61
2024/02/05 06:07:47;;;;;;;24.85;7.75;;;;;;;;;;5072375;28;20049;-61
2024/02/05 06:10:14;;;;;;;21.40;7.22;;;;;;;;;;5071566;28;20415;-61
2024/02/05 06:12:43;;;;;;;18.05;6.90;;;;;;;;;;5072335;28;20391;-60
2024/02/05 06:15:11;;;;;;;24.92;6.95;;;;;;;;;;5075626;28;20053;-60
2024/02/05 06:17:38;;;;;;;21.35;7.20;;;;;;;;;;5076390;28;20052;-61
2024/02/05 06:20:05;;;;;;;21.58;7.50;;;;;;;;;;5075970;28;20049;-60
2024/02/05 06:22:32;;;;;;;20.58;6.68;;;;;;;;;;5075603;28;20048;-60
2024/02/05 06:25:00;;;;;;;16.70;6.50;;;;;;;;;;5075823;28;20048;-60
2024/02/05 06:27:27;;;;;;;17.05;6.22;;;;;;;;;;5075851;28;20502;-60
2024/02/05 06:29:54;;;;;;;21.42;7.43;;;;;;;;;;5075739;28;20079;-60
2024/02/05 06:32:21;;;;;;;20.05;6.43;;;;;;;;;;5075696;28;20059;-60
2024/02/05 06:34:49;;;;;;;22.17;5.80;;;;;;;;;;5075653;28;20507;-60
2024/02/05 06:37:16;;;;;;;21.15;6.68;;;;;;;;;;5075458;28;20052;-60
2024/02/05 06:39:43;;;;;;;21.70;5.85;;;;;;;;;;5075569;28;20059;-60
2024/02/05 06:42:11;;;;;;;22.20;6.28;;;;;;;;;;5075549;28;20048;-60
2024/02/05 06:44:38;;;;;;;21.65;6.35;;;;;;;;;;5075530;28;20056;-60
2024/02/05 06:47:05;;;;;;;22.73;6.15;;;;;;;;;;5075635;28;20053;-60
2024/02/05 06:49:31;;;;;;;19.85;6.32;;;;;;;;;;5075173;28;20056;-60
2024/02/05 06:51:59;;;;;;;20.77;6.25;;;;;;;;;;5074978;28;20045;-60
2024/02/05 06:54:26;;;;;;;19.35;6.00;;;;;;;;;;5075224;28;20049;-60
2024/02/05 06:56:52;;;;;;;17.95;6.15;;;;;;;;;;5075245;28;20056;-60
2024/02/05 06:59:21;;;;;;;24.20;6.10;;;;;;;;;;5074846;28;20059;-60
2024/02/05 07:01:47;;;;;;;18.02;5.78;;;;;;;;;;5075179;28;20389;-60
2024/02/05 07:04:14;;;;;;;28.58;6.80;;;;;;;;;;5074857;28;20056;-62
2024/02/05 07:06:41;;;;;;;20.60;6.38;;;;;;;;;;5074686;28;20056;-60
2024/02/05 07:09:11;;;;;;;22.67;6.28;;;;;;;;;;5074654;28;20425;-60
2024/02/05 07:11:38;;;;;;;;;;;;;;;;;;5074913;28;20060;-60
2024/02/05 07:14:04;;;;;;;22.40;5.75;;;;;;;;;;5075188;28;19928;-60
2024/02/05 07:16:32;;;;;;;20.17;6.25;;;;;;;;;;5074335;28;20056;-62
2024/02/05 07:18:59;;;;;;;22.35;6.75;;;;;;;;;;5074931;28;20483;-60
2024/02/05 07:21:27;;;;;;;16.17;5.85;;;;;;;;;;5074743;28;20407;-60
2024/02/05 07:23:54;;;;;;;20.55;6.40;;;;;;;;;;5074297;28;20060;-60
2024/02/05 07:26:20;;;;;;;19.45;6.50;;;;;;;;;;5074000;28;20056;-60
2024/02/05 07:28:47;;;;;;;18.52;5.88;;;;;;;;;;5074556;28;20055;-60
2024/02/05 07:31:14;;;;;;;16.25;5.63;;;;;;;;;;5074937;28;20052;-60
2024/02/05 07:33:42;;;;;;;21.20;5.88;;;;;;;;;;5074929;28;20353;-60
2024/02/05 07:36:09;;;;;;;17.90;6.22;;;;;;;;;;5074500;28;20407;-60
2024/02/05 07:38:38;;;;;;;16.35;5.82;;;;;;;;;;5074593;28;20506;-61
2024/02/05 07:41:05;;;;;;;20.48;6.57;;;;;;;;;;5074256;28;20056;-60
2024/02/05 07:43:32;;;;;;;19.65;6.05;;;;;;;;;;5074756;28;20067;-60
2024/02/05 07:45:59;;;;;;;17.83;6.15;;;;;;;;;;5074490;28;20052;-61
2024/02/05 07:48:27;;;;;;;20.02;6.25;;;;;;;;;;5074819;28;20052;-60
2024/02/05 07:50:55;;;;;;;21.02;6.10;;;;;;;;;;5073940;28;20057;-60
2024/02/05 07:53:23;;;;;;;23.23;5.95;;;;;;;;;;5074281;28;20048;-60
2024/02/05 07:55:51;;;;;;;20.23;5.85;;;;;;;;;;5074228;28;20072;-60
2024/02/05 07:58:18;;;;;;;20.25;6.47;;;;;;;;;;5074263;28;20059;-60
2024/02/05 08:00:45;;;;;;;20.45;6.22;;;;;;;;;;5073638;28;20048;-60
2024/02/05 08:03:11;;;;;;;22.33;6.15;;;;;;;;;;5074191;28;20059;-60
2024/02/05 08:05:38;;;;;;;18.27;5.75;;;;;;;;;;5073937;28;20403;-60
2024/02/05 08:08:07;;;;;;;22.75;5.80;;;;;;;;;;5073884;28;20052;-59
2024/02/05 08:10:35;;;;;;;22.50;5.82;;;;;;;;;;5073848;28;20052;-61
2024/02/05 08:13:02;;;;;;;18.80;5.70;;;;;;;;;;5073875;28;20048;-61
2024/02/05 08:15:29;;;;;;;21.02;6.53;;;;;;;;;;5073586;28;20526;-61
2024/02/05 08:17:56;;;;;;;24.52;6.10;;;;;;;;;;5073905;28;20399;-61
2024/02/05 08:20:23;;;;;;;22.77;5.70;;;;;;;;;;5073381;28;20138;-61
2024/02/05 08:22:49;;;;;;;19.70;6.03;;;;;;;;;;5073766;28;20048;-61
2024/02/05 08:25:17;;;;;;;18.88;5.47;;;;;;;;;;5073605;28;20049;-61
2024/02/05 08:27:44;;;;;;;15.98;5.93;;;;;;;;;;5073848;28;20395;-62
2024/02/05 08:30:12;;;;;;;18.15;6.40;;;;;;;;;;5073471;28;20075;-61
2024/02/05 08:32:38;;;;;;;17.27;5.00;;;;;;;;;;5073647;28;20052;-61
2024/02/05 08:35:05;;;;;;;24.33;6.30;;;;;;;;;;5073248;28;20055;-61
2024/02/05 08:37:32;;;;;;;24.70;6.13;;;;;;;;;;5073426;28;20142;-61
2024/02/05 08:40:00;;;;;;;16.88;5.55;;;;;;;;;;5073393;28;20403;-60
2024/02/05 08:42:28;;;;;;;19.73;5.60;;;;;;;;;;5073207;28;20052;-61
2024/02/05 08:44:55;;;;;;;18.85;5.57;;;;;;;;;;5073341;28;20048;-61
2024/02/05 08:47:22;;;;;;;15.60;5.13;;;;;;;;;;5073304;28;20059;-61
2024/02/05 08:49:49;;;;;;;15.85;5.93;;;;;;;;;;5072937;28;20060;-61
2024/02/05 08:52:15;;;;;;;18.13;5.50;;;;;;;;;;5072891;28;20056;-61
2024/02/05 08:54:42;;;;;;;23.85;5.82;;;;;;;;;;5072917;28;20052;-61
2024/02/05 08:57:09;;;;;;;14.57;5.10;;;;;;;;;;5073186;28;20060;-62
2024/02/05 08:59:37;;;;;;;20.20;6.25;;;;;;;;;;5073182;28;20052;-61
2024/02/05 09:02:04;;;;;;;18.38;5.50;;;;;;;;;;5072684;28;20059;-61
2024/02/05 09:04:31;;;;;;;16.67;4.68;;;;;;;;;;5072807;28;20052;-60
2024/02/05 09:06:57;;;;;;;18.80;5.60;;;;;;;;;;5072582;28;20518;-61
2024/02/05 09:09:24;;;;;;;18.02;4.80;;;;;;;;;;5072437;28;20071;-60
2024/02/05 09:11:51;;;;;;;14.52;4.88;;;;;;;;;;5072320;28;20055;-60
2024/02/05 09:14:18;;;;;;;19.80;6.10;;;;;;;;;;5072300;28;20411;-61
2024/02/05 09:16:46;;;;;;;20.88;5.15;;;;;;;;;;5072344;28;20052;-60
2024/02/05 09:19:13;;;;;;;20.15;5.72;;;;;;;;;;5072929;28;20116;-60
2024/02/05 09:21:40;;;;;;;19.75;5.78;;;;;;;;;;5072271;28;20055;-60
2024/02/05 09:24:06;;;;;;;21.08;5.95;;;;;;;;;;5072654;28;20431;-60
2024/02/05 09:26:33;;;;;;;21.98;6.20;;;;;;;;;;5072498;28;20416;-61
2024/02/05 09:29:00;;;;;;;22.52;5.75;;;;;;;;;;5072490;28;20399;-60
2024/02/05 09:31:27;;;;;;;25.15;6.30;;;;;;;;;;5072619;28;20063;-61
2024/02/05 09:33:55;;;;;;;19.98;5.40;;;;;;;;;;5072564;28;20048;-61
2024/02/05 09:36:22;;;;;;;21.23;5.50;;;;;;;;;;5072460;28;20063;-60
2024/02/05 09:38:48;;;;;;;18.73;5.78;;;;;;;;;;5072762;28;20265;-61
2024/02/05 09:41:19;;;;;;;19.23;5.93;;;;;;;;;;5072643;28;20052;-61
2024/02/05 09:43:46;;;;;;;21.23;6.38;;;;;;;;;;5072335;28;20052;-60
2024/02/05 09:46:14;;;;;;;21.40;6.72;;;;;;;;;;5072256;28;20426;-61
2024/02/05 09:48:43;;;;;;;18.50;5.47;;;;;;;;;;5074818;28;20407;-60
2024/02/05 09:51:12;;;;;;;18.73;5.78;;;;;;;;;;5076535;28;20064;-61
2024/02/05 09:53:40;;;;;;;28.05;5.50;;;;;;;;;;5076761;28;20052;-60
2024/02/05 09:56:07;;;;;;;16.73;5.63;;;;;;;;;;5076562;28;20048;-61
2024/02/05 09:58:34;;;;;;;20.15;5.53;;;;;;;;;;5076486;28;20056;-61
2024/02/05 10:01:02;;;;;;;17.27;5.40;;;;;;;;;;5076269;28;20052;-60
2024/02/05 10:03:30;;;;;;;15.48;5.13;;;;;;;;;;5075623;28;20049;-61
2024/02/05 10:05:59;;;;;;;20.55;5.43;;;;;;;;;;5076038;28;20052;-60
2024/02/05 10:08:28;;;;;;;21.42;5.72;;;;;;;;;;5075855;28;20052;-61
2024/02/05 10:10:56;;;;;;;20.40;5.43;;;;;;;;;;5075777;28;20055;-60
2024/02/05 10:13:24;;;;;;;18.88;5.38;;;;;;;;;;5076599;28;20049;-61
2024/02/05 10:15:50;;;;;;;19.65;5.55;;;;;;;;;;5075519;28;20063;-61
2024/02/05 10:18:17;;;;;;;18.40;5.28;;;;;;;;;;5076400;28;20071;-61
2024/02/05 10:20:44;;;;;;;17.88;5.28;;;;;;;;;;5075941;28;20056;-61
2024/02/05 10:23:11;;;;;;;17.73;5.15;;;;;;;;;;5075991;28;20056;-60
2024/02/05 10:25:39;;;;;;;22.60;5.85;;;;;;;;;;5076057;28;20056;-60
2024/02/05 10:28:06;;;;;;;16.52;4.82;;;;;;;;;;5076002;28;20068;-60
2024/02/05 10:30:33;;;;;;;17.55;5.55;;;;;;;;;;5075466;28;20048;-60
2024/02/05 10:33:01;;;;;;;22.63;5.85;;;;;;;;;;5075469;28;20054;-60
2024/02/05 10:35:28;;;;;;;16.90;5.65;;;;;;;;;;5075389;28;20049;-61
2024/02/05 10:37:55;;;;;;;16.60;4.93;;;;;;;;;;5075867;28;20049;-60
2024/02/05 10:40:22;;;;;;;19.05;5.47;;;;;;;;;;5075253;28;20487;-60
2024/02/05 10:42:50;;;;;;;18.45;5.47;;;;;;;;;;5075704;28;20499;-60
2024/02/05 10:45:17;;;;;;;18.75;5.95;;;;;;;;;;5075548;28;20048;-60
2024/02/05 10:47:44;;;;;;;22.25;5.70;;;;;;;;;;5075429;28;20048;-60
2024/02/05 10:50:13;;;;;;;21.40;5.65;;;;;;;;;;5075331;28;20052;-61
2024/02/05 10:52:41;;;;;;;18.27;5.53;;;;;;;;;;5075513;28;20056;-60
2024/02/05 10:55:11;;;;;;;21.08;5.63;;;;;;;;;;5075174;28;20475;-60
2024/02/05 10:57:38;;;;;;;18.48;5.57;;;;;;;;;;5075430;28;20059;-60
2024/02/05 11:00:08;;;;;;;18.23;4.97;;;;;;;;;;5075166;28;20060;-60
2024/02/05 11:02:36;;;;;;;17.33;5.70;;;;;;;;;;5075144;28;20052;-60
2024/02/05 11:05:03;;;;;;;16.88;5.40;;;;;;;;;;5075480;28;20048;-60
2024/02/05 11:07:39;;;;;;;18.20;5.68;;;;;;;;;;5075195;28;20418;-60
2024/02/05 11:10:08;;;;;;;20.77;5.40;;;;;;;;;;5075241;28;20471;-60
2024/02/05 11:12:35;;;;;;;20.20;5.45;;;;;;;;;;5074542;28;20067;-61
2024/02/05 11:15:05;;;;;;;22.13;5.53;;;;;;;;;;5074508;28;20403;-60
2024/02/05 11:17:34;;;;;;;14.38;5.60;;;;;;;;;;5075402;28;20052;-60
2024/02/05 11:20:03;;;;;;;16.20;5.55;;;;;;;;;;5074865;28;20056;-60
2024/02/05 11:22:31;;;;;;;18.17;6.28;;;;;;;;;;5074714;28;20052;-60
2024/02/05 11:24:58;;;;;;;17.17;5.68;;;;;;;;;;5074998;28;20044;-60
2024/02/05 11:27:25;;;;;;;17.80;5.72;;;;;;;;;;5075043;28;20048;-60
2024/02/05 11:29:52;;;;;;;15.20;5.38;;;;;;;;;;5074432;28;20518;-60
2024/02/05 11:32:29;;;;;;;18.15;5.63;;;;;;;;;;5074866;28;20075;-60
2024/02/05 11:34:57;;;;;;;16.10;4.90;;;;;;;;;;5074611;28;20418;-60
2024/02/05 11:37:24;;;;;;;16.38;5.18;;;;;;;;;;5074539;28;20063;-60
2024/02/05 11:39:51;;;;;;;19.15;5.72;;;;;;;;;;5074411;28;20111;-60
2024/02/05 11:42:18;;;;;;;18.00;5.47;;;;;;;;;;5074422;28;20057;-60
2024/02/05 11:44:47;;;;;;;20.38;5.75;;;;;;;;;;5074310;28;20483;-60
2024/02/05 11:47:14;;;;;;;18.40;5.47;;;;;;;;;;5074472;28;20075;-60
2024/02/05 11:49:41;;;;;;;19.58;5.35;;;;;;;;;;5074395;28;20052;-61
2024/02/05 11:52:09;;;;;;;18.48;5.00;;;;;;;;;;5074216;28;20053;-60
2024/02/05 11:54:35;;;;;;;14.25;4.82;;;;;;;;;;5074064;28;20044;-59
2024/02/05 11:57:04;;;;;;;14.30;4.95;;;;;;;;;;5073913;28;20056;-60
2024/02/05 11:59:30;;;;;;;14.20;4.10;;;;;;;;;;5073888;28;20424;-60
2024/02/05 12:01:58;;;;;;;12.65;4.25;;;;;;;;;;5073873;28;20395;-61
2024/02/05 12:04:25;;;;;;;15.07;5.00;;;;;;;;;;5074152;28;20056;-61
2024/02/05 12:06:53;;;;;;;17.42;4.57;;;;;;;;;;5073985;28;20053;-61
2024/02/05 12:09:22;;;;;;;16.95;4.25;;;;;;;;;;5073580;28;20049;-60
2024/02/05 12:11:50;;;;;;;16.63;4.65;;;;;;;;;;5072939;28;20064;-61
2024/02/05 12:14:17;;;;;;;14.98;4.22;;;;;;;;;;5073637;28;20052;-61
2024/02/05 12:16:44;;;;;;;14.82;4.60;;;;;;;;;;5073590;28;20487;-60
2024/02/05 12:19:19;;;;;;;18.52;4.80;;;;;;;;;;5073379;28;20063;-61
2024/02/05 12:21:46;;;;;;;14.85;4.53;;;;;;;;;;5073659;28;20396;-60
2024/02/05 12:24:13;;;;;;;17.50;5.00;;;;;;;;;;5073222;28;20053;-61
2024/02/05 12:26:41;;;;;;;16.60;4.80;;;;;;;;;;5073281;28;20052;-60
2024/02/05 12:29:08;;;;;;;19.80;5.22;;;;;;;;;;5073509;28;20049;-60
2024/02/05 12:31:35;;;;;;;17.35;5.22;;;;;;;;;;5073528;28;20056;-60
2024/02/05 12:34:03;;;;;;;12.30;4.20;;;;;;;;;;5072943;28;20053;-60
2024/02/05 12:36:36;;;;;;;13.05;4.15;;;;;;;;;;5073347;28;20495;-60
2024/02/05 12:39:04;;;;;;;14.48;4.20;;;;;;;;;;5073261;28;20411;-60
2024/02/05 12:41:31;;;;;;;12.50;4.18;;;;;;;;;;5073158;28;20055;-61
2024/02/05 12:43:59;;;;;;;16.60;4.90;;;;;;;;;;5073200;28;20044;-61
2024/02/05 12:46:28;;;;;;;14.02;4.10;;;;;;;;;;5072782;28;20075;-61
2024/02/05 12:48:56;;;;;;;16.30;4.40;;;;;;;;;;5073325;28;20053;-61
2024/02/05 12:51:24;;;;;;;16.88;5.07;;;;;;;;;;5072669;28;20059;-61
2024/02/05 12:53:51;;;;;;;14.80;4.93;;;;;;;;;;5073012;28;20052;-61
2024/02/05 12:56:18;;;;;;;13.10;4.32;;;;;;;;;;5072946;28;20052;-61
2024/02/05 12:58:45;;;;;;;13.88;4.18;;;;;;;;;;5073019;28;20475;-61
2024/02/05 13:01:13;;;;;;;15.27;4.80;;;;;;;;;;5073031;28;20068;-60
2024/02/05 13:03:40;;;;;;;17.83;4.50;;;;;;;;;;5073298;28;20398;-60
2024/02/05 13:06:07;;;;;;;16.48;4.68;;;;;;;;;;5072806;28;20048;-60
2024/02/05 13:08:34;;;;;;;14.25;4.05;;;;;;;;;;5072945;28;20064;-60
2024/02/05 13:11:04;;;;;;;15.10;4.05;;;;;;;;;;5072996;28;20052;-60
2024/02/05 13:13:31;;;;;;;15.75;4.47;;;;;;;;;;5072840;28;20495;-60
2024/02/05 13:15:58;;;;;;;15.77;4.90;;;;;;;;;;5072312;28;20059;-59
2024/02/05 13:18:26;;;;;;;15.52;4.65;;;;;;;;;;5072862;28;20056;-60
2024/02/05 13:20:53;;;;;;;13.60;4.20;;;;;;;;;;5072741;28;20064;-60
2024/02/05 13:23:20;;;;;;;11.63;4.18;;;;;;;;;;5072006;28;20060;-60
2024/02/05 13:25:48;;;;;;;18.60;4.90;;;;;;;;;;5072222;28;20045;-60
2024/02/05 13:28:15;;;;;;;11.23;4.45;;;;;;;;;;5072585;28;20087;-60
2024/02/05 13:30:42;;;;;;;13.30;4.25;;;;;;;;;;5072526;28;20068;-59
2024/02/05 13:33:09;;;;;;;15.13;5.00;;;;;;;;;;5072651;28;20411;-60
2024/02/05 13:35:37;;;;;;;15.20;4.28;;;;;;;;;;5072662;28;20059;-59
2024/02/05 13:38:04;;;;;;;12.40;3.78;;;;;;;;;;5072534;28;20056;-58
2024/02/05 13:40:31;;;;;;;16.60;4.72;;;;;;;;;;5072405;28;20052;-60
2024/02/05 13:42:57;;;;;;;13.73;4.60;;;;;;;;;;5072281;28;20059;-59
2024/02/05 13:45:24;;;;;;;12.70;4.10;;;;;;;;;;5072624;28;20483;-61
2024/02/05 13:47:52;;;;;;;18.00;4.82;;;;;;;;;;5072094;28;20495;-60
2024/02/05 13:50:18;;;;;;;16.45;4.20;;;;;;;;;;5072585;28;20060;-60
2024/02/05 13:52:47;;;;;;;13.43;4.28;;;;;;;;;;5072230;28;20053;-60
2024/02/05 13:55:15;;;;;;;14.27;4.43;;;;;;;;;;5072264;28;20048;-60
2024/02/05 13:57:41;;;;;;;24.33;4.82;;;;;;;;;;5072361;28;20495;-60
2024/02/05 14:00:10;;;;;;;14.90;4.40;;;;;;;;;;5072336;28;20064;-62
2024/02/05 14:02:37;;;;;;;11.48;3.90;;;;;;;;;;5072013;28;20419;-61
2024/02/05 14:05:04;;;;;;;14.88;4.40;;;;;;;;;;5072355;28;20059;-61
2024/02/05 14:07:31;;;;;;;10.85;4.63;;;;;;;;;;5072318;28;20055;-60
2024/02/05 14:10:00;;;;;;;17.05;4.78;;;;;;;;;;5072138;28;20048;-60
2024/02/05 14:12:26;;;;;;;14.65;4.50;;;;;;;;;;5071829;28;20407;-60
2024/02/05 14:14:53;;;;;;;13.27;4.70;;;;;;;;;;5071641;28;20259;-59
2024/02/05 14:17:20;;;;;;;15.85;4.47;;;;;;;;;;5071831;28;20064;-60
2024/02/05 14:19:47;;;;;;;12.20;3.90;;;;;;;;;;5071727;28;20049;-60
2024/02/05 14:22:13;;;;;;;14.93;4.55;;;;;;;;;;5072172;28;20056;-60
2024/02/05 14:24:40;;;;;;;13.77;4.43;;;;;;;;;;5071755;28;20079;-59
2024/02/05 14:27:08;;;;;;;14.65;4.90;;;;;;;;;;5071773;28;20052;-60
2024/02/05 14:29:35;;;;;;;13.13;4.40;;;;;;;;;;5071834;28;20479;-59